^^
Grace C. Lehan Memorial Weather Station Historical Data
Daily Summary for February 26, 2021 Units:  Metric    English   Both
Daily Weekly Monthly Yearly
  High: Low: Average:
Temperature: 8.7 °C 1.8 °C 5.1 °C
Dew Point: 5.9 °C -1.2 °C 2.2 °C
Humidity: 94% 56.8% 82%
Wind Speed: 23.2km/h 0km/h 4.3km/h
Wind Gust: 48.3km/h - -
Wind- - West
Pressure: 1006.7 hPa 997.9 hPa -
Precipitation: 5.08 mm    
 
 
Tabular Data for February 26, 2021
Time Temperature Dew Point Pressure Wind Wind Speed Wind Gust Humidity Rainfall Rate (Hourly) solar
00:04 8.7 °C 0.7 °C 1006.7 hPa Calm   1.6 km/h 56.8% 0 mm 0 W/m2
00:09 8.7 °C 1.1 °C 1006.7 hPa Calm     58.7% 0 mm 0 W/m2
00:14 8.7 °C 1.4 °C 1006.3 hPa Calm     60.1% 0 mm 0 W/m2
00:19 8.7 °C 1.8 °C 1006 hPa Calm     62% 0 mm 0 W/m2
00:24 8.7 °C 2 °C 1006 hPa Calm     62.8% 0 mm 0 W/m2
00:29 8.6 °C 2.2 °C 1006 hPa Calm     64% 0 mm 0 W/m2
00:34 8.6 °C 2.3 °C 1006 hPa Calm     64.9% 0 mm 0 W/m2
00:39 8.5 °C 2.6 °C 1006 hPa Calm   1.6 km/h 66.2% 0 mm 0 W/m2
00:44 8.4 °C 2.9 °C 1006 hPa Calm   1.6 km/h 68% 0 mm 0 W/m2
00:49 8.2 °C 2.8 °C 1005.6 hPa Calm   1.6 km/h 68.3% 0 mm 0 W/m2
00:54 8.1 °C 2.6 °C 1006 hPa Calm   1.6 km/h 68% 0 mm 0 W/m2
00:59 8 °C 2.7 °C 1006 hPa Calm   1.6 km/h 69.3% 0 mm 0 W/m2
01:04 7.9 °C 3.1 °C 1006 hPa Calm   1.6 km/h 71.5% 0 mm 0 W/m2
01:09 7.7 °C 3 °C 1006 hPa Calm     72% 0 mm 0 W/m2
01:14 7.6 °C 2.9 °C 1005.6 hPa Calm     72% 0 mm 0 W/m2
01:19 7.6 °C 3 °C 1005.6 hPa Calm     72.7% 0 mm 0 W/m2
01:24 7.5 °C 3.2 °C 1005.6 hPa Calm     73.8% 0 mm 0 W/m2
01:29 7.5 °C 3.2 °C 1005.6 hPa Calm     74% 0 mm 0 W/m2
01:34 7.4 °C 3.3 °C 1005.6 hPa Calm     74.8% 0 mm 0 W/m2
01:39 7.4 °C 3.5 °C 1005.6 hPa Calm     76% 0 mm 0 W/m2
01:44 7.4 °C 3.5 °C 1005.3 hPa Calm     76% 0 mm 0 W/m2
01:49 7.4 °C 3.5 °C 1005.6 hPa Calm     76% 0 mm 0 W/m2
01:54 7.4 °C 3.5 °C 1005.6 hPa Calm     76% 0 mm 0 W/m2
01:59 7.4 °C 3.6 °C 1005.3 hPa Calm     76.2% 0 mm 0 W/m2
02:04 7.5 °C 3.8 °C 1005.3 hPa Calm     77.7% 0 mm 0 W/m2
02:09 7.5 °C 4.1 °C 1005 hPa Calm     79% 0 mm 0 W/m2
02:14 7.4 °C 4.2 °C 1005 hPa Calm     79.6% 0 mm 0 W/m2
02:19 7.4 °C 4.3 °C 1005 hPa Calm     80.6% 0 mm 0 W/m2
02:24 7.3 °C 4.3 °C 1004.6 hPa Calm     81% 0 mm 0 W/m2
02:29 7.2 °C 4.2 °C 1004.6 hPa Calm     81% 0 mm 0 W/m2
02:34 7.2 °C 4.3 °C 1004.6 hPa Calm     81.9% 0 mm 0 W/m2
02:39 7.1 °C 4.2 °C 1004.3 hPa Calm     82% 0 mm 0 W/m2
02:44 7.1 °C 4.3 °C 1004.3 hPa Calm     83% 0 mm 0 W/m2
02:49 7 °C 4.3 °C 1003.9 hPa Calm     83.1% 0 mm 0 W/m2
02:54 6.9 °C 4.4 °C 1003.6 hPa Calm     84% 0 mm 0 W/m2
02:59 6.9 °C 4.3 °C 1003.6 hPa Calm     84% 0 mm 0 W/m2
03:04 6.8 °C 4.4 °C 1003.6 hPa Calm     84.9% 0 mm 0 W/m2
03:05 6.8 °C 4.4 °C 1003.6 hPa Calm     85% 0 mm 0 W/m2
03:30 6.4 °C 4.4 °C 1003.6 hPa Calm     87% 0 mm 0 W/m2
04:04 6.3 °C 4.4 °C 1003.6 hPa Calm     87.9% 0.25 mm 0 W/m2
04:09 6.3 °C 4.6 °C 1003.3 hPa Calm     88.6% 0.25 mm 0 W/m2
04:14 6.2 °C 4.6 °C 1003.3 hPa Calm     89% 0.25 mm 0 W/m2
04:19 6.2 °C 4.5 °C 1003.3 hPa Calm     89% 0.25 mm 0 W/m2
04:24 6.2 °C 4.5 °C 1003.3 hPa Calm     89% 0.25 mm 0 W/m2
04:29 6.2 °C 4.5 °C 1002.9 hPa Calm     89% 0.25 mm 0 W/m2
04:34 6.2 °C 4.5 °C 1002.9 hPa Calm     89% 0.25 mm 0 W/m2
04:39 6.2 °C 4.5 °C 1002.9 hPa Calm     89% 0.25 mm 0 W/m2
04:44 6.2 °C 4.5 °C 1002.9 hPa Calm     89% 0.25 mm 0 W/m2
04:49 6.2 °C 4.5 °C 1002.9 hPa Calm     89% 0.25 mm 0 W/m2
04:54 6.2 °C 4.6 °C 1002.9 hPa Calm     89.5% 0.25 mm 0 W/m2
04:59 6.2 °C 4.6 °C 1002.9 hPa Calm     89.8% 0.25 mm 0 W/m2
05:04 6.2 °C 4.5 °C 1002.9 hPa Calm     89% 0.25 mm 0 W/m2
05:09 6.2 °C 4.5 °C 1002.6 hPa Calm     89% 0 mm 0 W/m2
05:14 6.2 °C 4.5 °C 1002.6 hPa Calm     89% 0 mm 0 W/m2
05:19 6.2 °C 4.5 °C 1002.6 hPa Calm     89% 0 mm 0 W/m2
05:24 6.2 °C 4.5 °C 1002.6 hPa Calm     89% 0 mm 0 W/m2
05:29 6.2 °C 4.5 °C 1002.6 hPa Calm     89% 0 mm 0 W/m2
05:34 6.2 °C 4.5 °C 1002.6 hPa Calm     89% 0 mm 0 W/m2
05:39 6.2 °C 4.5 °C 1002.3 hPa Calm     89% 0 mm 0 W/m2
05:44 6.2 °C 4.5 °C 1002.3 hPa Calm     89% 0 mm 0 W/m2
05:49 6.2 °C 4.5 °C 1002.3 hPa Calm     89% 0 mm 0 W/m2
05:54 6.2 °C 4.4 °C 1002.3 hPa Calm     89% 0 mm 0 W/m2
05:59 6.1 °C 4.4 °C 1001.9 hPa Calm     89% 0 mm 0 W/m2
06:04 6.1 °C 4.4 °C 1001.9 hPa Calm     89% 0 mm 0 W/m2
06:09 6.1 °C 4.4 °C 1001.9 hPa Calm     89% 0 mm 0 W/m2
06:14 6.1 °C 4.4 °C 1001.9 hPa Calm     89% 0 mm 0 W/m2
06:19 6.1 °C 4.4 °C 1001.9 hPa Calm     89% 0 mm 0 W/m2
06:24 6.1 °C 4.4 °C 1001.9 hPa Calm     89% 0 mm 0 W/m2
06:29 6.1 °C 4.4 °C 1001.9 hPa Calm     89% 0 mm 0 W/m2
06:34 6.1 °C 4.4 °C 1001.9 hPa Calm     89% 0 mm 0 W/m2
06:39 6.1 °C 4.4 °C 1001.9 hPa Calm     89% 0 mm 0 W/m2
06:44 6.1 °C 4.4 °C 1001.9 hPa Calm     89% 0 mm 0 W/m2
06:49 6.1 °C 4.4 °C 1001.9 hPa Calm     89% 0 mm 0 W/m2
06:54 6.1 °C 4.5 °C 1001.9 hPa Calm     89.8% 0 mm 0 W/m2
06:59 6.1 °C 4.6 °C 1001.9 hPa Calm     90% 0 mm 0 W/m2
07:04 6.1 °C 4.6 °C 1001.9 hPa Calm     90% 0 mm 0 W/m2
07:09 6.1 °C 4.6 °C 1001.6 hPa Calm     90% 0 mm 0 W/m2
07:14 6.1 °C 4.6 °C 1001.6 hPa Calm     90% 0 mm 0 W/m2
07:19 6.1 °C 4.6 °C 1001.6 hPa Calm     90% 0.25 mm 0 W/m2
07:24 6.1 °C 4.6 °C 1001.2 hPa Calm     90% 0.25 mm 5 W/m2
07:29 6.1 °C 4.7 °C 1001.2 hPa Calm     90.6% 0.25 mm 5 W/m2
07:34 6.1 °C 4.7 °C 1001.6 hPa Calm     91% 0.25 mm 7 W/m2
07:39 6.1 °C 4.7 °C 1001.6 hPa Calm     91% 0.25 mm 9 W/m2
07:44 6.1 °C 4.7 °C 1001.6 hPa Calm     91% 0.25 mm 11 W/m2
07:49 6.1 °C 4.7 °C 1001.2 hPa Calm     91% 0.51 mm 9 W/m2
07:54 6.1 °C 4.7 °C 1001.2 hPa Calm     91% 0.51 mm 11 W/m2
07:59 6.1 °C 4.7 °C 1001.2 hPa Calm     91% 0.51 mm 11 W/m2
08:04 6.1 °C 4.7 °C 1001.2 hPa Calm     91% 0 mm 11 W/m2
08:09 6.1 °C 4.8 °C 1001.2 hPa Calm     91.8% 0.51 mm 16 W/m2
08:14 6.1 °C 4.8 °C 1001.2 hPa Calm     92% 0.51 mm 16 W/m2
08:19 6.1 °C 4.8 °C 1000.9 hPa Calm     92% 0.51 mm 18 W/m2
08:24 6.1 °C 4.8 °C 1001.2 hPa Calm     92% 0.51 mm 19 W/m2
08:29 6.1 °C 4.9 °C 1001.2 hPa Calm     92% 0.51 mm 19 W/m2
08:34 6.1 °C 4.9 °C 1001.2 hPa Calm     92% 0.51 mm 23 W/m2
08:39 6.1 °C 4.9 °C 1000.9 hPa Calm     92% 0.25 mm 21 W/m2
08:44 6.1 °C 4.9 °C 1000.9 hPa Calm     92% 0.25 mm 23 W/m2
08:49 6.1 °C 4.9 °C 1000.9 hPa Calm     92% 0.25 mm 28 W/m2
08:54 6.1 °C 5.1 °C 1000.6 hPa Calm     93% 0.51 mm 35 W/m2
08:59 6.2 °C 5.1 °C 1000.6 hPa Calm     93% 0.51 mm 33 W/m2
09:04 6.2 °C 5.1 °C 1000.6 hPa Calm     93% 0.51 mm 26 W/m2
09:09 6.2 °C 5.1 °C 1000.6 hPa Calm     93% 0.25 mm 28 W/m2
09:14 6.2 °C 5.2 °C 1000.2 hPa Calm     93% 0.25 mm 26 W/m2
09:19 6.2 °C 5.1 °C 1000.2 hPa Calm     93% 0.51 mm 18 W/m2
09:23 6.2 °C 5.1 °C 1000.2 hPa Calm     93% 0.51 mm 14 W/m2
09:30 6.2 °C 5.2 °C 1000.2 hPa Calm     93% 1.02 mm 20 W/m2
10:00 6.3 °C 5.4 °C 999.9 hPa Calm   1.6 km/h 94% 1.52 mm 31 W/m2
10:30 6.6 °C 5.7 °C 999.5 hPa Calm     94% 1.78 mm 42 W/m2
11:00 6.7 °C 5.8 °C 998.9 hPa Calm   8 km/h 94% 2.29 mm 43 W/m2
11:30 6.8 °C 5.9 °C 998.5 hPa Calm   8 km/h 94% 2.79 mm 54 W/m2
12:04 6.6 °C 5.6 °C 998.5 hPa WNW 11.3 km/h 22.5 km/h 93.1% 2.79 mm 76 W/m2
12:09 6.5 °C 5.4 °C 998.2 hPa WNW 12.1 km/h 30.6 km/h 93% 2.29 mm 90 W/m2
12:14 6.4 °C 5.2 °C 998.2 hPa NW 19.3 km/h 40.2 km/h 92.1% 2.29 mm 105 W/m2
12:19 6.4 °C 5 °C 998.5 hPa WNW 8.5 km/h 40.2 km/h 91% 2.29 mm 107 W/m2
12:24 6.4 °C 4.9 °C 998.5 hPa WNW 12.2 km/h 40.2 km/h 90.7% 2.29 mm 83 W/m2
12:29 6.3 °C 4.8 °C 998.5 hPa WNW 9.2 km/h 40.2 km/h 90% 2.29 mm 44 W/m2
12:34 6.3 °C 4.8 °C 998.5 hPa WNW 10.6 km/h 40.2 km/h 90% 2.29 mm 39 W/m2
12:39 6.2 °C 4.6 °C 998.9 hPa WNW 16.7 km/h 32.2 km/h 89.2% 0 mm 72 W/m2
12:44 6.1 °C 4.2 °C 998.9 hPa WNW 22 km/h 35.4 km/h 87.9% 0 mm 91 W/m2
12:49 5.9 °C 3.9 °C 998.5 hPa NW 13.7 km/h 35.4 km/h 87% 0 mm 70 W/m2
12:54 5.9 °C 3.9 °C 998.2 hPa WNW 14.2 km/h 35.4 km/h 87% 0 mm 134 W/m2
12:59 5.9 °C 3.8 °C 998.2 hPa WNW 15.1 km/h 35.4 km/h 86.7% 0 mm 206 W/m2
13:04 5.9 °C 3.8 °C 998.2 hPa WNW 16.3 km/h 35.4 km/h 85.9% 0 mm 167 W/m2
13:09 5.9 °C 3.6 °C 998.2 hPa WNW 9.8 km/h 35.4 km/h 85% 0 mm 84 W/m2
13:14 5.9 °C 3.6 °C 998.2 hPa NW 6.8 km/h 35.4 km/h 85.1% 0 mm 102 W/m2
13:19 6 °C 3.8 °C 998.2 hPa WNW 1.4 km/h 35.4 km/h 86.2% 0 mm 199 W/m2
13:24 6.1 °C 4.1 °C 997.9 hPa NW 5.3 km/h 35.4 km/h 87% 0 mm 193 W/m2
13:29 6.2 °C 4 °C 997.9 hPa NW 7.4 km/h 35.4 km/h 86.1% 0 mm 214 W/m2
13:34 6.3 °C 4 °C 997.9 hPa WNW 12.7 km/h 35.4 km/h 85.5% 0 mm 214 W/m2
13:39 6.3 °C 3.8 °C 997.9 hPa WNW 12.6 km/h 30.6 km/h 84.2% 0 mm 202 W/m2
13:44 6.3 °C 3.7 °C 997.9 hPa WNW 11.4 km/h 30.6 km/h 83.4% 0 mm 146 W/m2
13:49 6.3 °C 3.6 °C 997.9 hPa NW 13.4 km/h 33.8 km/h 82.7% 0 mm 97 W/m2
13:54 6.2 °C 3.2 °C 997.9 hPa WNW 10.5 km/h 35.4 km/h 81.3% 0 mm 69 W/m2
13:59 6.1 °C 2.9 °C 997.9 hPa WNW 15.4 km/h 35.4 km/h 80.5% 0 mm 65 W/m2
14:04 5.9 °C 2.8 °C 997.9 hPa WNW 14.5 km/h 35.4 km/h 80% 0 mm 60 W/m2
14:09 5.8 °C 2.6 °C 997.9 hPa WNW 20.9 km/h 40.2 km/h 79.6% 0 mm 88 W/m2
14:14 5.8 °C 2.7 °C 997.9 hPa WNW 19.6 km/h 40.2 km/h 80.5% 0 mm 100 W/m2
14:19 5.8 °C 2.3 °C 998.2 hPa NW 23.2 km/h 48.3 km/h 78.1% 0 mm 90 W/m2
14:24 5.7 °C 2.1 °C 998.2 hPa NW 20.9 km/h 48.3 km/h 77% 0 mm 67 W/m2
14:29 5.7 °C 1.8 °C 998.2 hPa WNW 18.2 km/h 48.3 km/h 76.2% 0 mm 72 W/m2
14:34 5.7 °C 1.8 °C 998.2 hPa WNW 18.2 km/h 48.3 km/h 76% 0 mm 81 W/m2
14:39 5.7 °C 1.7 °C 998.5 hPa WNW 16.4 km/h 33.8 km/h 75.5% 0 mm 84 W/m2
14:44 5.6 °C 1.6 °C 998.5 hPa WNW 16.1 km/h 33.8 km/h 75.2% 0 mm 83 W/m2
14:49 5.6 °C 1.6 °C 998.2 hPa WNW 11.3 km/h 33.8 km/h 75.3% 0 mm 83 W/m2
14:54 5.6 °C 1.7 °C 998.5 hPa WNW 15 km/h 33.8 km/h 76% 0 mm 72 W/m2
14:59 5.5 °C 1.4 °C 998.5 hPa NW 13.8 km/h 33.8 km/h 75.3% 0 mm 47 W/m2
15:04 5.4 °C 1.3 °C 998.2 hPa WNW 13.2 km/h 33.8 km/h 75% 0 mm 32 W/m2
15:09 5.3 °C 1.3 °C 998.2 hPa NW 11.9 km/h 27.4 km/h 75% 0 mm 25 W/m2
15:14 5.2 °C 1.2 °C 998.2 hPa WNW 14.5 km/h 27.4 km/h 75.2% 0 mm 25 W/m2
15:19 5.2 °C 1.2 °C 998.5 hPa WNW 13.5 km/h 27.4 km/h 75.6% 0 mm 19 W/m2
15:24 5.1 °C 1.2 °C 998.5 hPa WNW 20.1 km/h 40.2 km/h 75.4% 0 mm 28 W/m2
15:29 5.1 °C 0.9 °C 998.5 hPa WNW 14.2 km/h 40.2 km/h 74.4% 0 mm 44 W/m2
15:34 5.1 °C 1 °C 998.9 hPa WNW 10.5 km/h 40.2 km/h 74.7% 0 mm 49 W/m2
15:39 5.2 °C 1.1 °C 998.9 hPa WNW 10.3 km/h 22.5 km/h 75% 0 mm 51 W/m2
15:44 5.2 °C 1 °C 998.9 hPa WNW 10.3 km/h 24.1 km/h 74.5% 0 mm 47 W/m2
15:49 5.1 °C 0.7 °C 998.9 hPa WNW 13.7 km/h 27.4 km/h 73.1% 0 mm 33 W/m2
15:54 5.1 °C 0.6 °C 999.2 hPa NW 15.9 km/h 32.2 km/h 72.8% 0 mm 25 W/m2
15:59 5 °C 0.6 °C 999.2 hPa West 3.4 km/h 32.2 km/h 73.1% 0 mm 18 W/m2
16:09 4.8 °C 0.7 °C 999.2 hPa West 2.9 km/h 11.3 km/h 74.6% 0 mm 7 W/m2
16:14 4.8 °C 0.8 °C 999.2 hPa West 3.7 km/h 11.3 km/h 75% 0 mm 0 W/m2
16:19 4.7 °C 0.6 °C 999.2 hPa West 5.5 km/h 22.5 km/h 74.8% 0 mm 0 W/m2
16:24 4.6 °C 0.6 °C 999.2 hPa West 5.8 km/h 22.5 km/h 75% 0 mm 0 W/m2
16:29 4.6 °C 0.5 °C 999.2 hPa West 10.5 km/h 25.7 km/h 75.1% 0 mm 0 W/m2
16:34 4.5 °C 0.4 °C 999.2 hPa WNW 12.4 km/h 29 km/h 74.9% 0 mm 0 W/m2
16:39 4.4 °C 0.2 °C 999.5 hPa West 12.4 km/h 30.6 km/h 74% 0 mm 0 W/m2
16:44 4.3 °C 0.1 °C 999.5 hPa West 11.9 km/h 35.4 km/h 74% 0 mm 0 W/m2
16:49 4.3 °C 0.1 °C 999.5 hPa West 4.3 km/h 35.4 km/h 74% 0 mm 0 W/m2
16:54 4.2 °C 0.2 °C 999.5 hPa West 9 km/h 35.4 km/h 75% 0 mm 0 W/m2
16:59 4.1 °C 0.2 °C 999.9 hPa West 12.2 km/h 35.4 km/h 75.5% 0 mm 0 W/m2
17:04 4 °C 0.2 °C 999.9 hPa West 12.4 km/h 35.4 km/h 76.1% 0 mm 0 W/m2
17:09 3.9 °C 0.2 °C 999.9 hPa WNW 6.4 km/h 25.7 km/h 77% 0 mm 0 W/m2
17:14 3.8 °C 0.3 °C 999.9 hPa West 0.8 km/h 25.7 km/h 77.8% 0 mm 0 W/m2
17:19 3.8 °C 0.4 °C 999.9 hPa West 5.3 km/h 25.7 km/h 78.7% 0 mm 0 W/m2
17:24 3.7 °C 0.4 °C 1000.2 hPa WSW 1.6 km/h 25.7 km/h 79% 0 mm 0 W/m2
17:29 3.7 °C 0.5 °C 1000.2 hPa WSW 2.7 km/h 25.7 km/h 79.7% 0 mm 0 W/m2
17:34 3.6 °C 0.5 °C 1000.2 hPa WSW 3.7 km/h 25.7 km/h 80% 0 mm 0 W/m2
17:39 3.6 °C 0.5 °C 1000.2 hPa WSW 2.3 km/h 24.1 km/h 80.5% 0 mm 0 W/m2
17:44 3.6 °C 0.6 °C 1000.2 hPa WSW 3.7 km/h 24.1 km/h 81% 0 mm 0 W/m2
17:49 3.5 °C 0.6 °C 1000.2 hPa West 1.1 km/h 24.1 km/h 81% 0 mm 0 W/m2
17:54 3.4 °C 0.7 °C 1000.2 hPa WSW 1.1 km/h 24.1 km/h 81.9% 0 mm 0 W/m2
17:59 3.4 °C 0.7 °C 1000.2 hPa West 1.4 km/h 24.1 km/h 82% 0 mm 0 W/m2
18:04 3.4 °C 0.6 °C 1000.2 hPa West 0.6 km/h 24.1 km/h 81.7% 0 mm 0 W/m2
18:09 3.3 °C 0.5 °C 1000.2 hPa West 0.3 km/h 14.5 km/h 81.8% 0 mm 0 W/m2
18:14 3.3 °C 0.7 °C 1000.2 hPa WSW 1.4 km/h 20.9 km/h 83% 0 mm 0 W/m2
18:19 3.2 °C 0.6 °C 999.9 hPa WSW 3.2 km/h 20.9 km/h 83% 0 mm 0 W/m2
18:24 3.2 °C 0.7 °C 999.9 hPa West 2.7 km/h 20.9 km/h 83.8% 0 mm 0 W/m2
18:29 3.1 °C 0.6 °C 999.9 hPa WSW 4.2 km/h 20.9 km/h 83.8% 0 mm 0 W/m2
18:34 3 °C 0.4 °C 999.9 hPa WSW 3.5 km/h 25.7 km/h 83% 0 mm 0 W/m2
18:39 2.9 °C 0.3 °C 999.9 hPa WSW 0.5 km/h 25.7 km/h 82.8% 0 mm 0 W/m2
18:44 2.9 °C 0.2 °C 999.9 hPa WNW 4.5 km/h 25.7 km/h 81.9% 0 mm 0 W/m2
18:49 2.9 °C 0 °C 999.9 hPa West 1.1 km/h 25.7 km/h 81% 0 mm 0 W/m2
18:54 2.9 °C -0.1 °C 1000.2 hPa West 5 km/h 25.7 km/h 80.4% 0 mm 0 W/m2
18:59 2.9 °C -0.2 °C 1000.2 hPa WNW 7.2 km/h 25.7 km/h 80% 0 mm 0 W/m2
19:04 2.9 °C -0.3 °C 1000.2 hPa West 6.1 km/h 25.7 km/h 79.1% 0 mm 0 W/m2
19:09 2.9 °C -0.3 °C 999.9 hPa West 5.5 km/h 20.9 km/h 79% 0 mm 0 W/m2
19:14 2.9 °C -0.3 °C 999.9 hPa West 5 km/h 20.9 km/h 79% 0 mm 0 W/m2
19:19 2.9 °C -0.3 °C 999.9 hPa WSW 5.5 km/h 20.9 km/h 79% 0 mm 0 W/m2
19:24 2.9 °C -0.4 °C 999.9 hPa West 9.7 km/h 29 km/h 79% 0 mm 0 W/m2
19:29 2.8 °C -0.6 °C 999.9 hPa WSW 6.4 km/h 30.6 km/h 78.2% 0 mm 0 W/m2
19:34 2.8 °C -0.7 °C 999.9 hPa West 9.2 km/h 30.6 km/h 78% 0 mm 0 W/m2
19:39 2.7 °C -0.7 °C 999.9 hPa West 5 km/h 24.1 km/h 78% 0 mm 0 W/m2
19:44 2.7 °C -0.8 °C 999.9 hPa West 5.8 km/h 24.1 km/h 77.9% 0 mm 0 W/m2
19:49 2.7 °C -0.8 °C 999.9 hPa WSW 2.9 km/h 24.1 km/h 78% 0 mm 0 W/m2
19:54 2.6 °C -0.9 °C 999.9 hPa West 12.4 km/h 29 km/h 77.2% 0 mm 0 W/m2
19:59 2.6 °C -1.2 °C 999.9 hPa West 10.3 km/h 30.6 km/h 76.3% 0 mm 0 W/m2
20:00 2.6 °C -1.2 °C 999.9 hPa WSW 8 km/h 30.6 km/h 76% 0 mm 0 W/m2
20:09 2.5 °C -1.1 °C 999.9 hPa West 3.2 km/h 19.3 km/h 77% 0 mm 0 W/m2
20:14 2.5 °C -1.1 °C 999.9 hPa WSW 8.2 km/h 24.1 km/h 77.2% 0 mm 0 W/m2
20:19 2.4 °C -1.2 °C 999.9 hPa West 7.2 km/h 24.1 km/h 77% 0 mm 0 W/m2
20:24 2.4 °C -1.1 °C 1000.2 hPa West 4.3 km/h 24.1 km/h 77.5% 0 mm 0 W/m2
20:29 2.4 °C -1.1 °C 1000.2 hPa West 6 km/h 24.1 km/h 78% 0 mm 0 W/m2
20:34 2.4 °C -1.1 °C 1000.2 hPa West 3.1 km/h 24.1 km/h 78% 0 mm 0 W/m2
20:39 2.3 °C -1.1 °C 1000.2 hPa WNW 5 km/h 24.1 km/h 78% 0 mm 0 W/m2
20:44 2.3 °C -1.1 °C 1000.2 hPa West 1 km/h 24.1 km/h 78% 0 mm 0 W/m2
20:49 2.3 °C -1.1 °C 1000.2 hPa West 3.4 km/h 24.1 km/h 78% 0 mm 0 W/m2
20:54 2.3 °C -1.1 °C 1000.2 hPa West 4.5 km/h 24.1 km/h 78% 0 mm 0 W/m2
20:59 2.3 °C -1.1 °C 1000.2 hPa WSW 3.9 km/h 24.1 km/h 78% 0 mm 0 W/m2
21:04 2.3 °C -1.2 °C 1000.2 hPa West 9.3 km/h 24.1 km/h 78% 0 mm 0 W/m2
21:09 2.3 °C -1.2 °C 1000.2 hPa West 4 km/h 19.3 km/h 78% 0 mm 0 W/m2
21:14 2.3 °C -1.1 °C 999.9 hPa West 4 km/h 19.3 km/h 78.1% 0 mm 0 W/m2
21:19 2.3 °C -1.1 °C 999.9 hPa West 4.5 km/h 19.3 km/h 78.5% 0 mm 0 W/m2
21:24 2.3 °C -1.1 °C 999.9 hPa West 6 km/h 30.6 km/h 78.2% 0 mm 0 W/m2
21:29 2.3 °C -1.1 °C 999.9 hPa West 6.1 km/h 30.6 km/h 78.7% 0 mm 0 W/m2
21:34 2.2 °C -1.1 °C 999.9 hPa West 3.2 km/h 30.6 km/h 79% 0 mm 0 W/m2
21:39 2.2 °C -1.1 °C 999.9 hPa West 3.2 km/h 19.3 km/h 79% 0 mm 0 W/m2
21:44 2.2 °C -1.1 °C 999.9 hPa WNW 4.8 km/h 19.3 km/h 79% 0 mm 0 W/m2
21:49 2.2 °C -1.1 °C 999.9 hPa West 5.1 km/h 24.1 km/h 79% 0 mm 0 W/m2
21:54 2.2 °C -1.1 °C 999.9 hPa WSW 3.2 km/h 24.1 km/h 79% 0 mm 0 W/m2
21:59 2.1 °C -1.1 °C 999.9 hPa West 3.9 km/h 24.1 km/h 79.2% 0 mm 0 W/m2
22:04 2.1 °C -1 °C 999.9 hPa West 3.9 km/h 24.1 km/h 80% 0 mm 0 W/m2
22:09 2.1 °C -1 °C 999.9 hPa West 3.5 km/h 20.9 km/h 80% 0 mm 0 W/m2
22:14 2.1 °C -1 °C 999.9 hPa West 1.8 km/h 20.9 km/h 80% 0 mm 0 W/m2
22:19 2 °C -1.1 °C 999.9 hPa West 5 km/h 20.9 km/h 80% 0 mm 0 W/m2
22:24 2 °C -1.1 °C 999.9 hPa West 2.9 km/h 20.9 km/h 80% 0 mm 0 W/m2
22:29 1.9 °C -1.1 °C 999.9 hPa WSW 2.3 km/h 20.9 km/h 80.2% 0 mm 0 W/m2
22:34 1.9 °C -0.9 °C 999.9 hPa West 4.2 km/h 20.9 km/h 81% 0 mm 0 W/m2
22:39 1.9 °C -1 °C 999.9 hPa WSW 3.1 km/h 22.5 km/h 81% 0 mm 0 W/m2
22:44 1.9 °C -1 °C 999.9 hPa WSW 4.3 km/h 22.5 km/h 81% 0 mm 0 W/m2
22:49 1.9 °C -1 °C 999.9 hPa WSW 2.4 km/h 22.5 km/h 81% 0 mm 0 W/m2
22:54 1.9 °C -1.1 °C 999.9 hPa SW 3.2 km/h 22.5 km/h 81% 0 mm 0 W/m2
22:59 1.8 °C -1.1 °C 999.9 hPa SW 1.3 km/h 22.5 km/h 81% 0 mm 0 W/m2
23:00 1.8 °C -1.1 °C 999.9 hPa Calm   22.5 km/h 81% 0 mm 0 W/m2
23:09 1.8 °C -1.1 °C 999.9 hPa West 3.4 km/h 16.1 km/h 81% 0 mm 0 W/m2
23:14 1.8 °C -1.1 °C 999.9 hPa WSW 1.9 km/h 17.7 km/h 81% 0 mm 0 W/m2
23:19 1.8 °C -1.1 °C 999.9 hPa WSW 3.2 km/h 17.7 km/h 81% 0 mm 0 W/m2
23:24 1.8 °C -1.1 °C 999.9 hPa WNW 2.1 km/h 17.7 km/h 81% 0 mm 0 W/m2
23:29 1.8 °C -1.1 °C 999.9 hPa West 2.4 km/h 17.7 km/h 81% 0 mm 0 W/m2
23:34 1.8 °C -1.1 °C 1000.2 hPa West 2.6 km/h 17.7 km/h 81% 0 mm 0 W/m2
23:39 1.8 °C -1.1 °C 1000.2 hPa WSW 1.8 km/h 16.1 km/h 81% 0 mm 0 W/m2
23:44 1.8 °C -0.9 °C 999.9 hPa West 1.4 km/h 16.1 km/h 81.7% 0 mm 0 W/m2
23:49 1.8 °C -0.9 °C 1000.2 hPa West 5.1 km/h 17.7 km/h 81.8% 0 mm 0 W/m2
23:54 1.8 °C -1.1 °C 999.9 hPa West 1.1 km/h 17.7 km/h 81% 0 mm 0 W/m2
23:59 1.8 °C -1.1 °C 999.9 hPa West 1.3 km/h 17.7 km/h 81% 0 mm 0 W/m2
Hartford County Weather
Compliments of Weather Underground - 4 mb